sensor_id;sensor_type;location;lat;lon;timestamp;P1;durP1;ratioP1;P2;durP2;ratioP2
76373;SDS011;65197;50.164;8.012;2022-11-15T00:00:06;16.95;;;10.75;;
76373;SDS011;65197;50.164;8.012;2022-11-15T00:02:32;18.48;;;10.73;;
76373;SDS011;65197;50.164;8.012;2022-11-15T00:04:57;20.00;;;11.65;;
76373;SDS011;65197;50.164;8.012;2022-11-15T00:07:22;21.92;;;12.63;;
76373;SDS011;65197;50.164;8.012;2022-11-15T00:09:48;21.08;;;12.20;;
76373;SDS011;65197;50.164;8.012;2022-11-15T00:12:13;22.25;;;13.07;;
76373;SDS011;65197;50.164;8.012;2022-11-15T00:14:39;21.85;;;11.65;;
76373;SDS011;65197;50.164;8.012;2022-11-15T00:17:04;19.65;;;11.45;;
76373;SDS011;65197;50.164;8.012;2022-11-15T00:19:29;23.52;;;11.90;;
76373;SDS011;65197;50.164;8.012;2022-11-15T00:21:55;19.58;;;12.18;;
76373;SDS011;65197;50.164;8.012;2022-11-15T00:24:20;19.90;;;11.30;;
76373;SDS011;65197;50.164;8.012;2022-11-15T00:26:46;20.23;;;12.43;;
76373;SDS011;65197;50.164;8.012;2022-11-15T00:29:11;18.67;;;10.52;;
76373;SDS011;65197;50.164;8.012;2022-11-15T00:31:36;17.40;;;9.77;;
76373;SDS011;65197;50.164;8.012;2022-11-15T00:34:02;19.30;;;10.40;;
76373;SDS011;65197;50.164;8.012;2022-11-15T00:36:28;17.73;;;10.48;;
76373;SDS011;65197;50.164;8.012;2022-11-15T00:38:53;18.17;;;10.07;;
76373;SDS011;65197;50.164;8.012;2022-11-15T00:41:19;20.17;;;9.43;;
76373;SDS011;65197;50.164;8.012;2022-11-15T00:43:44;18.05;;;9.95;;
76373;SDS011;65197;50.164;8.012;2022-11-15T00:46:09;19.95;;;10.80;;
76373;SDS011;65197;50.164;8.012;2022-11-15T00:48:35;20.33;;;10.73;;
76373;SDS011;65197;50.164;8.012;2022-11-15T00:51:01;20.27;;;11.55;;
76373;SDS011;65197;50.164;8.012;2022-11-15T00:53:26;20.25;;;10.32;;
76373;SDS011;65197;50.164;8.012;2022-11-15T00:55:52;17.30;;;10.68;;
76373;SDS011;65197;50.164;8.012;2022-11-15T00:58:17;16.92;;;10.68;;
76373;SDS011;65197;50.164;8.012;2022-11-15T01:00:43;19.27;;;10.93;;
76373;SDS011;65197;50.164;8.012;2022-11-15T01:03:08;20.90;;;13.93;;
76373;SDS011;65197;50.164;8.012;2022-11-15T01:05:33;19.45;;;11.45;;
76373;SDS011;65197;50.164;8.012;2022-11-15T01:07:59;19.08;;;11.43;;
76373;SDS011;65197;50.164;8.012;2022-11-15T01:10:24;20.90;;;10.98;;
76373;SDS011;65197;50.164;8.012;2022-11-15T01:12:50;19.30;;;10.85;;
76373;SDS011;65197;50.164;8.012;2022-11-15T01:15:16;20.83;;;12.13;;
76373;SDS011;65197;50.164;8.012;2022-11-15T01:17:41;19.63;;;10.77;;
76373;SDS011;65197;50.164;8.012;2022-11-15T01:20:07;19.25;;;10.98;;
76373;SDS011;65197;50.164;8.012;2022-11-15T01:22:33;26.38;;;12.68;;
76373;SDS011;65197;50.164;8.012;2022-11-15T01:24:58;21.95;;;11.45;;
76373;SDS011;65197;50.164;8.012;2022-11-15T01:27:24;20.35;;;12.18;;
76373;SDS011;65197;50.164;8.012;2022-11-15T01:29:49;19.92;;;11.38;;
76373;SDS011;65197;50.164;8.012;2022-11-15T01:32:15;18.25;;;11.23;;
76373;SDS011;65197;50.164;8.012;2022-11-15T01:34:40;19.08;;;12.07;;
76373;SDS011;65197;50.164;8.012;2022-11-15T01:37:06;20.92;;;12.30;;
76373;SDS011;65197;50.164;8.012;2022-11-15T01:39:31;21.98;;;11.50;;
76373;SDS011;65197;50.164;8.012;2022-11-15T01:41:56;18.13;;;10.55;;
76373;SDS011;65197;50.164;8.012;2022-11-15T01:47:00;17.70;;;10.15;;
76373;SDS011;65197;50.164;8.012;2022-11-15T01:49:27;21.08;;;11.13;;
76373;SDS011;65197;50.164;8.012;2022-11-15T01:51:53;19.45;;;10.05;;
76373;SDS011;65197;50.164;8.012;2022-11-15T01:54:19;22.40;;;10.80;;
76373;SDS011;65197;50.164;8.012;2022-11-15T01:56:47;18.20;;;11.40;;
76373;SDS011;65197;50.164;8.012;2022-11-15T01:59:29;17.50;;;11.00;;
76373;SDS011;65197;50.164;8.012;2022-11-15T02:01:55;20.42;;;10.70;;
76373;SDS011;65197;50.164;8.012;2022-11-15T02:04:24;19.80;;;11.00;;
76373;SDS011;65197;50.164;8.012;2022-11-15T02:06:51;19.00;;;11.55;;
76373;SDS011;65197;50.164;8.012;2022-11-15T02:09:16;17.05;;;9.95;;
76373;SDS011;65197;50.164;8.012;2022-11-15T02:11:42;23.10;;;10.48;;
76373;SDS011;65197;50.164;8.012;2022-11-15T02:14:08;17.63;;;10.70;;
76373;SDS011;65197;50.164;8.012;2022-11-15T02:16:48;18.08;;;10.57;;
76373;SDS011;65197;50.164;8.012;2022-11-15T02:33:08;15.55;;;9.80;;
76373;SDS011;65197;50.164;8.012;2022-11-15T02:41:20;19.80;;;10.43;;
76373;SDS011;65197;50.164;8.012;2022-11-15T02:44:08;18.70;;;10.75;;
76373;SDS011;65197;50.164;8.012;2022-11-15T02:46:56;15.57;;;9.05;;
76373;SDS011;65197;50.164;8.012;2022-11-15T02:49:39;13.30;;;8.88;;
76373;SDS011;65197;50.164;8.012;2022-11-15T02:52:06;16.00;;;8.40;;
76373;SDS011;65197;50.164;8.012;2022-11-15T02:54:32;15.57;;;9.95;;
76373;SDS011;65197;50.164;8.012;2022-11-15T02:57:00;15.52;;;9.82;;
76373;SDS011;65197;50.164;8.012;2022-11-15T03:02:12;14.43;;;9.48;;
76373;SDS011;65197;50.164;8.012;2022-11-15T03:05:08;14.13;;;9.48;;
76373;SDS011;65197;50.164;8.012;2022-11-15T03:16:03;14.68;;;8.57;;
76373;SDS011;65197;50.164;8.012;2022-11-15T03:18:38;14.13;;;8.05;;
76373;SDS011;65197;50.164;8.012;2022-11-15T03:21:07;11.43;;;7.75;;
76373;SDS011;65197;50.164;8.012;2022-11-15T03:23:33;13.15;;;7.90;;
76373;SDS011;65197;50.164;8.012;2022-11-15T03:26:00;12.35;;;7.97;;
76373;SDS011;65197;50.164;8.012;2022-11-15T03:28:34;14.10;;;7.80;;
76373;SDS011;65197;50.164;8.012;2022-11-15T03:31:07;13.13;;;8.65;;
76373;SDS011;65197;50.164;8.012;2022-11-15T03:33:53;13.35;;;8.38;;
76373;SDS011;65197;50.164;8.012;2022-11-15T03:36:21;10.07;;;7.72;;
76373;SDS011;65197;50.164;8.012;2022-11-15T03:38:47;13.50;;;7.80;;
76373;SDS011;65197;50.164;8.012;2022-11-15T03:41:17;11.15;;;7.80;;
76373;SDS011;65197;50.164;8.012;2022-11-15T03:43:55;13.32;;;8.80;;
76373;SDS011;65197;50.164;8.012;2022-11-15T03:46:26;12.10;;;7.40;;
76373;SDS011;65197;50.164;8.012;2022-11-15T03:48:58;14.95;;;8.68;;
76373;SDS011;65197;50.164;8.012;2022-11-15T03:51:31;11.63;;;7.20;;
76373;SDS011;65197;50.164;8.012;2022-11-15T03:53:56;12.63;;;8.20;;
76373;SDS011;65197;50.164;8.012;2022-11-15T03:56:22;11.07;;;7.78;;
76373;SDS011;65197;50.164;8.012;2022-11-15T03:58:47;12.20;;;7.82;;
76373;SDS011;65197;50.164;8.012;2022-11-15T04:01:13;10.30;;;7.30;;
76373;SDS011;65197;50.164;8.012;2022-11-15T04:03:38;11.80;;;8.00;;
76373;SDS011;65197;50.164;8.012;2022-11-15T04:06:03;13.77;;;7.30;;
76373;SDS011;65197;50.164;8.012;2022-11-15T04:08:29;11.48;;;7.43;;
76373;SDS011;65197;50.164;8.012;2022-11-15T04:10:54;12.63;;;8.50;;
76373;SDS011;65197;50.164;8.012;2022-11-15T04:13:20;16.60;;;8.48;;
76373;SDS011;65197;50.164;8.012;2022-11-15T04:15:45;14.05;;;8.20;;
76373;SDS011;65197;50.164;8.012;2022-11-15T04:18:10;14.25;;;9.25;;
76373;SDS011;65197;50.164;8.012;2022-11-15T04:20:36;13.45;;;8.38;;
76373;SDS011;65197;50.164;8.012;2022-11-15T04:23:21;12.10;;;7.80;;
76373;SDS011;65197;50.164;8.012;2022-11-15T04:26:14;12.23;;;7.68;;
76373;SDS011;65197;50.164;8.012;2022-11-15T04:28:42;13.23;;;7.80;;
76373;SDS011;65197;50.164;8.012;2022-11-15T04:31:26;10.88;;;8.20;;
76373;SDS011;65197;50.164;8.012;2022-11-15T04:33:51;13.30;;;8.18;;
76373;SDS011;65197;50.164;8.012;2022-11-15T04:36:17;10.80;;;6.85;;
76373;SDS011;65197;50.164;8.012;2022-11-15T04:39:01;14.05;;;8.80;;
76373;SDS011;65197;50.164;8.012;2022-11-15T04:41:27;11.20;;;7.50;;
76373;SDS011;65197;50.164;8.012;2022-11-15T04:43:54;12.15;;;7.85;;
76373;SDS011;65197;50.164;8.012;2022-11-15T04:46:19;15.55;;;8.88;;
76373;SDS011;65197;50.164;8.012;2022-11-15T04:48:44;13.65;;;8.32;;
76373;SDS011;65197;50.164;8.012;2022-11-15T04:51:10;13.35;;;8.95;;
76373;SDS011;65197;50.164;8.012;2022-11-15T04:53:35;12.95;;;8.05;;
76373;SDS011;65197;50.164;8.012;2022-11-15T04:56:01;17.00;;;8.57;;
76373;SDS011;65197;50.164;8.012;2022-11-15T04:58:26;14.73;;;8.80;;
76373;SDS011;65197;50.164;8.012;2022-11-15T05:00:51;15.43;;;9.20;;
76373;SDS011;65197;50.164;8.012;2022-11-15T05:03:17;14.35;;;8.88;;
76373;SDS011;65197;50.164;8.012;2022-11-15T05:06:01;15.88;;;9.38;;
76373;SDS011;65197;50.164;8.012;2022-11-15T05:08:26;17.55;;;9.50;;
76373;SDS011;65197;50.164;8.012;2022-11-15T05:10:51;18.17;;;10.90;;
76373;SDS011;65197;50.164;8.012;2022-11-15T05:13:17;17.58;;;9.93;;
76373;SDS011;65197;50.164;8.012;2022-11-15T05:15:42;17.77;;;10.68;;
76373;SDS011;65197;50.164;8.012;2022-11-15T05:18:08;16.48;;;10.25;;
76373;SDS011;65197;50.164;8.012;2022-11-15T05:20:33;16.80;;;10.23;;
76373;SDS011;65197;50.164;8.012;2022-11-15T05:22:59;17.50;;;11.18;;
76373;SDS011;65197;50.164;8.012;2022-11-15T05:25:24;18.13;;;10.57;;
76373;SDS011;65197;50.164;8.012;2022-11-15T05:27:50;18.92;;;10.32;;
76373;SDS011;65197;50.164;8.012;2022-11-15T05:30:15;16.58;;;10.07;;
76373;SDS011;65197;50.164;8.012;2022-11-15T05:32:41;17.38;;;11.27;;
76373;SDS011;65197;50.164;8.012;2022-11-15T05:35:06;21.02;;;12.13;;
76373;SDS011;65197;50.164;8.012;2022-11-15T05:37:34;19.92;;;10.68;;
76373;SDS011;65197;50.164;8.012;2022-11-15T05:39:59;17.70;;;10.77;;
76373;SDS011;65197;50.164;8.012;2022-11-15T05:42:24;21.05;;;11.48;;
76373;SDS011;65197;50.164;8.012;2022-11-15T05:44:51;17.55;;;10.90;;
76373;SDS011;65197;50.164;8.012;2022-11-15T05:47:18;15.93;;;10.23;;
76373;SDS011;65197;50.164;8.012;2022-11-15T05:49:46;18.45;;;10.93;;
76373;SDS011;65197;50.164;8.012;2022-11-15T05:52:13;18.05;;;11.20;;
76373;SDS011;65197;50.164;8.012;2022-11-15T05:54:41;18.60;;;10.82;;
76373;SDS011;65197;50.164;8.012;2022-11-15T05:57:07;15.00;;;8.98;;
76373;SDS011;65197;50.164;8.012;2022-11-15T05:59:33;18.30;;;10.38;;
76373;SDS011;65197;50.164;8.012;2022-11-15T06:01:58;19.60;;;10.43;;
76373;SDS011;65197;50.164;8.012;2022-11-15T06:04:24;15.85;;;9.18;;
76373;SDS011;65197;50.164;8.012;2022-11-15T06:06:49;16.88;;;9.82;;
76373;SDS011;65197;50.164;8.012;2022-11-15T06:09:15;15.18;;;9.30;;
76373;SDS011;65197;50.164;8.012;2022-11-15T06:11:40;15.25;;;9.43;;
76373;SDS011;65197;50.164;8.012;2022-11-15T06:14:05;15.95;;;9.45;;
76373;SDS011;65197;50.164;8.012;2022-11-15T06:16:31;18.02;;;10.25;;
76373;SDS011;65197;50.164;8.012;2022-11-15T06:18:56;17.73;;;10.10;;
76373;SDS011;65197;50.164;8.012;2022-11-15T06:21:22;16.20;;;9.63;;
76373;SDS011;65197;50.164;8.012;2022-11-15T06:23:47;15.40;;;10.13;;
76373;SDS011;65197;50.164;8.012;2022-11-15T06:26:13;15.75;;;10.05;;
76373;SDS011;65197;50.164;8.012;2022-11-15T06:28:38;14.05;;;9.38;;
76373;SDS011;65197;50.164;8.012;2022-11-15T06:31:08;14.98;;;8.95;;
76373;SDS011;65197;50.164;8.012;2022-11-15T06:33:34;15.40;;;9.07;;
76373;SDS011;65197;50.164;8.012;2022-11-15T06:36:01;17.80;;;10.35;;
76373;SDS011;65197;50.164;8.012;2022-11-15T06:38:27;15.88;;;9.07;;
76373;SDS011;65197;50.164;8.012;2022-11-15T06:40:53;15.07;;;9.38;;
76373;SDS011;65197;50.164;8.012;2022-11-15T06:43:18;16.90;;;9.25;;
76373;SDS011;65197;50.164;8.012;2022-11-15T06:45:43;18.27;;;9.80;;
76373;SDS011;65197;50.164;8.012;2022-11-15T06:48:09;18.52;;;9.15;;
76373;SDS011;65197;50.164;8.012;2022-11-15T06:50:34;18.05;;;9.40;;
76373;SDS011;65197;50.164;8.012;2022-11-15T06:53:00;14.35;;;8.50;;
76373;SDS011;65197;50.164;8.012;2022-11-15T06:55:27;16.48;;;8.98;;
76373;SDS011;65197;50.164;8.012;2022-11-15T06:57:52;15.82;;;9.00;;
76373;SDS011;65197;50.164;8.012;2022-11-15T07:00:19;14.88;;;8.45;;
76373;SDS011;65197;50.164;8.012;2022-11-15T07:02:45;13.15;;;8.52;;
76373;SDS011;65197;50.164;8.012;2022-11-15T07:05:11;14.32;;;7.78;;
76373;SDS011;65197;50.164;8.012;2022-11-15T07:07:38;13.48;;;8.30;;
76373;SDS011;65197;50.164;8.012;2022-11-15T07:10:03;11.38;;;7.00;;
76373;SDS011;65197;50.164;8.012;2022-11-15T07:12:29;13.57;;;7.80;;
76373;SDS011;65197;50.164;8.012;2022-11-15T07:14:55;10.55;;;7.40;;
76373;SDS011;65197;50.164;8.012;2022-11-15T07:17:20;12.10;;;7.68;;
76373;SDS011;65197;50.164;8.012;2022-11-15T07:19:45;11.80;;;7.78;;
76373;SDS011;65197;50.164;8.012;2022-11-15T07:22:11;9.82;;;6.95;;
76373;SDS011;65197;50.164;8.012;2022-11-15T07:24:36;9.38;;;5.88;;
76373;SDS011;65197;50.164;8.012;2022-11-15T07:27:01;10.52;;;6.75;;
76373;SDS011;65197;50.164;8.012;2022-11-15T07:29:27;11.20;;;7.00;;
76373;SDS011;65197;50.164;8.012;2022-11-15T07:31:52;11.98;;;6.78;;
76373;SDS011;65197;50.164;8.012;2022-11-15T07:34:18;9.02;;;6.00;;
76373;SDS011;65197;50.164;8.012;2022-11-15T07:36:43;9.98;;;5.60;;
76373;SDS011;65197;50.164;8.012;2022-11-15T07:39:09;9.27;;;6.10;;
76373;SDS011;65197;50.164;8.012;2022-11-15T07:41:34;8.43;;;5.85;;
76373;SDS011;65197;50.164;8.012;2022-11-15T07:44:00;8.10;;;5.35;;
76373;SDS011;65197;50.164;8.012;2022-11-15T07:46:26;10.43;;;6.22;;
76373;SDS011;65197;50.164;8.012;2022-11-15T07:48:52;8.75;;;6.18;;
76373;SDS011;65197;50.164;8.012;2022-11-15T07:51:17;9.05;;;5.72;;
76373;SDS011;65197;50.164;8.012;2022-11-15T07:53:43;7.70;;;5.72;;
76373;SDS011;65197;50.164;8.012;2022-11-15T07:56:08;8.70;;;5.75;;
76373;SDS011;65197;50.164;8.012;2022-11-15T07:58:34;9.20;;;6.18;;
76373;SDS011;65197;50.164;8.012;2022-11-15T08:01:03;9.48;;;5.60;;
76373;SDS011;65197;50.164;8.012;2022-11-15T08:03:33;7.50;;;5.13;;
76373;SDS011;65197;50.164;8.012;2022-11-15T08:05:58;7.97;;;5.63;;
76373;SDS011;65197;50.164;8.012;2022-11-15T08:08:24;11.68;;;6.63;;
76373;SDS011;65197;50.164;8.012;2022-11-15T08:10:49;8.20;;;5.47;;
76373;SDS011;65197;50.164;8.012;2022-11-15T08:13:14;8.85;;;6.25;;
76373;SDS011;65197;50.164;8.012;2022-11-15T08:15:40;10.63;;;6.20;;
76373;SDS011;65197;50.164;8.012;2022-11-15T08:18:06;11.90;;;7.68;;
76373;SDS011;65197;50.164;8.012;2022-11-15T08:20:35;7.72;;;5.43;;
76373;SDS011;65197;50.164;8.012;2022-11-15T08:23:01;8.60;;;6.00;;
76373;SDS011;65197;50.164;8.012;2022-11-15T08:25:28;8.10;;;5.65;;
76373;SDS011;65197;50.164;8.012;2022-11-15T08:27:55;6.80;;;5.05;;
76373;SDS011;65197;50.164;8.012;2022-11-15T08:30:22;9.85;;;6.32;;
76373;SDS011;65197;50.164;8.012;2022-11-15T08:32:48;10.23;;;7.53;;
76373;SDS011;65197;50.164;8.012;2022-11-15T08:35:15;8.35;;;5.85;;
76373;SDS011;65197;50.164;8.012;2022-11-15T08:37:40;6.93;;;4.90;;
76373;SDS011;65197;50.164;8.012;2022-11-15T08:40:06;6.93;;;5.00;;
76373;SDS011;65197;50.164;8.012;2022-11-15T08:42:32;8.95;;;5.28;;
76373;SDS011;65197;50.164;8.012;2022-11-15T08:44:57;6.57;;;4.43;;
76373;SDS011;65197;50.164;8.012;2022-11-15T08:47:23;8.88;;;5.05;;
76373;SDS011;65197;50.164;8.012;2022-11-15T08:49:49;6.88;;;4.35;;
76373;SDS011;65197;50.164;8.012;2022-11-15T08:52:14;7.22;;;4.50;;
76373;SDS011;65197;50.164;8.012;2022-11-15T08:54:39;8.55;;;5.20;;
76373;SDS011;65197;50.164;8.012;2022-11-15T08:57:05;8.55;;;4.57;;
76373;SDS011;65197;50.164;8.012;2022-11-15T08:59:31;5.72;;;4.03;;
76373;SDS011;65197;50.164;8.012;2022-11-15T09:01:56;6.43;;;4.20;;
76373;SDS011;65197;50.164;8.012;2022-11-15T09:04:22;6.47;;;4.63;;
76373;SDS011;65197;50.164;8.012;2022-11-15T09:06:48;6.45;;;4.63;;
76373;SDS011;65197;50.164;8.012;2022-11-15T09:09:14;8.35;;;4.65;;
76373;SDS011;65197;50.164;8.012;2022-11-15T09:11:39;8.25;;;5.05;;
76373;SDS011;65197;50.164;8.012;2022-11-15T09:14:04;6.15;;;4.50;;
76373;SDS011;65197;50.164;8.012;2022-11-15T09:16:30;7.95;;;4.18;;
76373;SDS011;65197;50.164;8.012;2022-11-15T09:18:56;5.90;;;4.25;;
76373;SDS011;65197;50.164;8.012;2022-11-15T09:21:21;7.13;;;4.60;;
76373;SDS011;65197;50.164;8.012;2022-11-15T09:23:49;5.63;;;4.00;;
76373;SDS011;65197;50.164;8.012;2022-11-15T09:28:41;5.55;;;4.10;;
76373;SDS011;65197;50.164;8.012;2022-11-15T09:31:07;6.28;;;3.90;;
76373;SDS011;65197;50.164;8.012;2022-11-15T09:33:32;5.80;;;4.20;;
76373;SDS011;65197;50.164;8.012;2022-11-15T09:36:02;6.80;;;4.78;;
76373;SDS011;65197;50.164;8.012;2022-11-15T09:38:30;7.18;;;4.18;;
76373;SDS011;65197;50.164;8.012;2022-11-15T09:41:08;6.47;;;4.15;;
76373;SDS011;65197;50.164;8.012;2022-11-15T09:49:53;6.05;;;4.40;;
76373;SDS011;65197;50.164;8.012;2022-11-15T09:52:20;6.32;;;4.50;;
76373;SDS011;65197;50.164;8.012;2022-11-15T09:54:49;6.90;;;4.35;;
76373;SDS011;65197;50.164;8.012;2022-11-15T09:57:18;5.50;;;3.67;;
76373;SDS011;65197;50.164;8.012;2022-11-15T10:03:10;7.03;;;3.95;;
76373;SDS011;65197;50.164;8.012;2022-11-15T10:05:50;5.80;;;4.72;;
76373;SDS011;65197;50.164;8.012;2022-11-15T10:11:02;5.70;;;4.00;;
76373;SDS011;65197;50.164;8.012;2022-11-15T10:13:30;6.47;;;4.10;;
76373;SDS011;65197;50.164;8.012;2022-11-15T10:16:01;6.00;;;3.80;;
76373;SDS011;65197;50.164;8.012;2022-11-15T10:18:47;6.00;;;4.07;;
76373;SDS011;65197;50.164;8.012;2022-11-15T10:21:34;6.78;;;4.47;;
76373;SDS011;65197;50.164;8.012;2022-11-15T10:24:10;5.95;;;4.25;;
76373;SDS011;65197;50.164;8.012;2022-11-15T10:26:36;5.22;;;3.95;;
76373;SDS011;65197;50.164;8.012;2022-11-15T10:29:01;6.05;;;4.35;;
76373;SDS011;65197;50.164;8.012;2022-11-15T10:31:28;6.35;;;4.13;;
76373;SDS011;65197;50.164;8.012;2022-11-15T10:34:10;6.28;;;4.32;;
76373;SDS011;65197;50.164;8.012;2022-11-15T10:36:38;6.32;;;4.40;;
76373;SDS011;65197;50.164;8.012;2022-11-15T10:39:11;5.32;;;4.55;;
76373;SDS011;65197;50.164;8.012;2022-11-15T10:41:38;5.85;;;4.43;;
76373;SDS011;65197;50.164;8.012;2022-11-15T10:49:31;9.15;;;5.65;;
76373;SDS011;65197;50.164;8.012;2022-11-15T10:51:59;8.43;;;5.75;;
76373;SDS011;65197;50.164;8.012;2022-11-15T10:54:30;6.45;;;5.20;;
76373;SDS011;65197;50.164;8.012;2022-11-15T10:57:00;8.32;;;5.40;;
76373;SDS011;65197;50.164;8.012;2022-11-15T10:59:32;6.22;;;4.60;;
76373;SDS011;65197;50.164;8.012;2022-11-15T11:01:58;7.47;;;4.53;;
76373;SDS011;65197;50.164;8.012;2022-11-15T11:04:24;6.80;;;4.90;;
76373;SDS011;65197;50.164;8.012;2022-11-15T11:06:50;6.50;;;4.13;;
76373;SDS011;65197;50.164;8.012;2022-11-15T11:09:36;5.28;;;3.72;;
76373;SDS011;65197;50.164;8.012;2022-11-15T11:12:03;5.57;;;3.97;;
76373;SDS011;65197;50.164;8.012;2022-11-15T11:14:31;6.03;;;3.90;;
76373;SDS011;65197;50.164;8.012;2022-11-15T11:17:13;7.00;;;3.30;;
76373;SDS011;65197;50.164;8.012;2022-11-15T11:20:02;6.38;;;4.03;;
76373;SDS011;65197;50.164;8.012;2022-11-15T11:22:52;5.82;;;3.83;;
76373;SDS011;65197;50.164;8.012;2022-11-15T11:25:29;4.63;;;3.33;;
76373;SDS011;65197;50.164;8.012;2022-11-15T11:30:43;6.15;;;3.85;;
76373;SDS011;65197;50.164;8.012;2022-11-15T11:42:01;6.88;;;4.55;;
76373;SDS011;65197;50.164;8.012;2022-11-15T11:49:43;7.50;;;4.30;;
76373;SDS011;65197;50.164;8.012;2022-11-15T11:52:26;7.03;;;4.78;;
76373;SDS011;65197;50.164;8.012;2022-11-15T11:57:49;5.70;;;4.70;;
76373;SDS011;65197;50.164;8.012;2022-11-15T12:00:23;6.68;;;4.45;;
76373;SDS011;65197;50.164;8.012;2022-11-15T12:05:44;6.43;;;4.18;;
76373;SDS011;65197;50.164;8.012;2022-11-15T12:10:59;5.95;;;4.72;;
76373;SDS011;65197;50.164;8.012;2022-11-15T12:13:34;7.65;;;4.90;;
76373;SDS011;65197;50.164;8.012;2022-11-15T12:18:29;7.47;;;5.30;;
76373;SDS011;65197;50.164;8.012;2022-11-15T12:20:56;7.28;;;5.15;;
76373;SDS011;65197;50.164;8.012;2022-11-15T12:23:28;6.93;;;4.88;;
76373;SDS011;65197;50.164;8.012;2022-11-15T12:25:59;6.03;;;4.53;;
76373;SDS011;65197;50.164;8.012;2022-11-15T12:31:18;7.57;;;4.40;;
76373;SDS011;65197;50.164;8.012;2022-11-15T12:33:57;6.20;;;4.38;;
76373;SDS011;65197;50.164;8.012;2022-11-15T12:41:17;6.53;;;4.60;;
76373;SDS011;65197;50.164;8.012;2022-11-15T12:43:43;8.65;;;4.90;;
76373;SDS011;65197;50.164;8.012;2022-11-15T12:48:49;7.75;;;5.15;;
76373;SDS011;65197;50.164;8.012;2022-11-15T12:51:20;10.45;;;6.15;;
76373;SDS011;65197;50.164;8.012;2022-11-15T12:53:46;7.22;;;5.35;;
76373;SDS011;65197;50.164;8.012;2022-11-15T13:01:09;7.93;;;5.68;;
76373;SDS011;65197;50.164;8.012;2022-11-15T13:03:35;8.57;;;5.28;;
76373;SDS011;65197;50.164;8.012;2022-11-15T13:06:02;10.68;;;5.65;;
76373;SDS011;65197;50.164;8.012;2022-11-15T13:19:42;8.00;;;5.40;;
76373;SDS011;65197;50.164;8.012;2022-11-15T13:22:09;8.38;;;5.28;;
76373;SDS011;65197;50.164;8.012;2022-11-15T13:24:53;8.68;;;5.20;;
76373;SDS011;65197;50.164;8.012;2022-11-15T13:27:19;6.80;;;4.72;;
76373;SDS011;65197;50.164;8.012;2022-11-15T13:29:45;5.88;;;4.45;;
76373;SDS011;65197;50.164;8.012;2022-11-15T13:32:11;6.38;;;4.70;;
76373;SDS011;65197;50.164;8.012;2022-11-15T13:34:38;5.90;;;4.57;;
76373;SDS011;65197;50.164;8.012;2022-11-15T13:37:13;5.20;;;4.35;;
76373;SDS011;65197;50.164;8.012;2022-11-15T13:39:53;7.13;;;5.20;;
76373;SDS011;65197;50.164;8.012;2022-11-15T13:42:19;7.53;;;4.47;;
76373;SDS011;65197;50.164;8.012;2022-11-15T13:44:55;9.60;;;4.50;;
76373;SDS011;65197;50.164;8.012;2022-11-15T13:47:26;6.22;;;4.72;;
76373;SDS011;65197;50.164;8.012;2022-11-15T13:49:52;6.43;;;4.28;;
76373;SDS011;65197;50.164;8.012;2022-11-15T13:52:18;6.32;;;4.35;;
76373;SDS011;65197;50.164;8.012;2022-11-15T13:54:45;5.40;;;3.88;;
76373;SDS011;65197;50.164;8.012;2022-11-15T13:57:39;6.65;;;3.88;;
76373;SDS011;65197;50.164;8.012;2022-11-15T14:03:05;7.65;;;5.10;;
76373;SDS011;65197;50.164;8.012;2022-11-15T14:05:43;7.13;;;4.88;;
76373;SDS011;65197;50.164;8.012;2022-11-15T14:10:40;9.05;;;4.72;;
76373;SDS011;65197;50.164;8.012;2022-11-15T14:13:10;8.13;;;5.32;;
76373;SDS011;65197;50.164;8.012;2022-11-15T14:15:51;7.80;;;5.53;;
76373;SDS011;65197;50.164;8.012;2022-11-15T14:21:19;8.52;;;5.38;;
76373;SDS011;65197;50.164;8.012;2022-11-15T14:23:45;9.32;;;6.40;;
76373;SDS011;65197;50.164;8.012;2022-11-15T14:26:30;10.40;;;6.63;;
76373;SDS011;65197;50.164;8.012;2022-11-15T14:28:57;11.85;;;7.32;;
76373;SDS011;65197;50.164;8.012;2022-11-15T14:31:25;9.52;;;6.63;;
76373;SDS011;65197;50.164;8.012;2022-11-15T14:33:51;11.20;;;7.55;;
76373;SDS011;65197;50.164;8.012;2022-11-15T14:38:43;12.60;;;8.05;;
76373;SDS011;65197;50.164;8.012;2022-11-15T14:41:11;11.52;;;8.27;;
76373;SDS011;65197;50.164;8.012;2022-11-15T14:43:43;10.23;;;7.95;;
76373;SDS011;65197;50.164;8.012;2022-11-15T14:46:08;11.57;;;7.75;;
76373;SDS011;65197;50.164;8.012;2022-11-15T14:48:33;9.15;;;7.13;;
76373;SDS011;65197;50.164;8.012;2022-11-15T14:50:59;13.77;;;7.80;;
76373;SDS011;65197;50.164;8.012;2022-11-15T14:53:25;10.93;;;7.63;;
76373;SDS011;65197;50.164;8.012;2022-11-15T14:55:50;9.10;;;7.28;;
76373;SDS011;65197;50.164;8.012;2022-11-15T14:58:15;10.23;;;6.88;;
76373;SDS011;65197;50.164;8.012;2022-11-15T15:00:41;11.63;;;7.60;;
76373;SDS011;65197;50.164;8.012;2022-11-15T15:03:07;9.57;;;7.40;;
76373;SDS011;65197;50.164;8.012;2022-11-15T15:05:39;10.10;;;7.75;;
76373;SDS011;65197;50.164;8.012;2022-11-15T15:08:06;9.70;;;6.72;;
76373;SDS011;65197;50.164;8.012;2022-11-15T15:10:36;10.52;;;7.82;;
76373;SDS011;65197;50.164;8.012;2022-11-15T15:13:22;11.65;;;7.85;;
76373;SDS011;65197;50.164;8.012;2022-11-15T15:15:48;10.85;;;7.95;;
76373;SDS011;65197;50.164;8.012;2022-11-15T15:18:14;12.40;;;8.30;;
76373;SDS011;65197;50.164;8.012;2022-11-15T15:20:40;12.95;;;9.43;;
76373;SDS011;65197;50.164;8.012;2022-11-15T15:23:17;13.18;;;9.23;;
76373;SDS011;65197;50.164;8.012;2022-11-15T15:25:43;15.32;;;10.65;;
76373;SDS011;65197;50.164;8.012;2022-11-15T15:28:10;16.92;;;11.35;;
76373;SDS011;65197;50.164;8.012;2022-11-15T15:30:36;15.90;;;11.10;;
76373;SDS011;65197;50.164;8.012;2022-11-15T15:33:01;16.08;;;11.27;;
76373;SDS011;65197;50.164;8.012;2022-11-15T15:35:29;15.38;;;10.50;;
76373;SDS011;65197;50.164;8.012;2022-11-15T15:37:56;16.63;;;11.43;;
76373;SDS011;65197;50.164;8.012;2022-11-15T15:40:22;21.00;;;13.68;;
76373;SDS011;65197;50.164;8.012;2022-11-15T15:42:49;20.42;;;13.32;;
76373;SDS011;65197;50.164;8.012;2022-11-15T15:45:15;18.67;;;13.50;;
76373;SDS011;65197;50.164;8.012;2022-11-15T15:47:42;20.88;;;12.77;;
76373;SDS011;65197;50.164;8.012;2022-11-15T15:50:17;23.50;;;14.27;;
76373;SDS011;65197;50.164;8.012;2022-11-15T15:52:46;17.17;;;13.15;;
76373;SDS011;65197;50.164;8.012;2022-11-15T15:55:11;17.58;;;12.57;;
76373;SDS011;65197;50.164;8.012;2022-11-15T15:57:36;19.55;;;11.63;;
76373;SDS011;65197;50.164;8.012;2022-11-15T16:00:03;19.92;;;13.88;;
76373;SDS011;65197;50.164;8.012;2022-11-15T16:02:29;21.58;;;14.15;;
76373;SDS011;65197;50.164;8.012;2022-11-15T16:04:54;20.10;;;13.02;;
76373;SDS011;65197;50.164;8.012;2022-11-15T16:07:21;18.73;;;13.10;;
76373;SDS011;65197;50.164;8.012;2022-11-15T16:09:48;19.52;;;13.50;;
76373;SDS011;65197;50.164;8.012;2022-11-15T16:12:30;19.88;;;13.13;;
76373;SDS011;65197;50.164;8.012;2022-11-15T16:14:58;19.17;;;14.02;;
76373;SDS011;65197;50.164;8.012;2022-11-15T16:17:33;19.35;;;13.23;;
76373;SDS011;65197;50.164;8.012;2022-11-15T16:20:02;20.20;;;14.50;;
76373;SDS011;65197;50.164;8.012;2022-11-15T16:22:28;18.33;;;13.80;;
76373;SDS011;65197;50.164;8.012;2022-11-15T16:24:54;18.52;;;12.75;;
76373;SDS011;65197;50.164;8.012;2022-11-15T16:27:20;20.15;;;13.75;;
76373;SDS011;65197;50.164;8.012;2022-11-15T16:29:46;20.80;;;14.32;;
76373;SDS011;65197;50.164;8.012;2022-11-15T16:32:12;18.52;;;13.18;;
76373;SDS011;65197;50.164;8.012;2022-11-15T16:34:38;20.13;;;13.55;;
76373;SDS011;65197;50.164;8.012;2022-11-15T16:37:04;22.60;;;14.25;;
76373;SDS011;65197;50.164;8.012;2022-11-15T16:39:29;18.50;;;12.75;;